Time;durP1;ratioP1;P1;durP2;ratioP2;P2;SDS_P1;SDS_P2;PMS_P1;PMS_P2;Temp;Humidity;BMP_temperature;BMP_pressure;BME280_temperature;BME280_humidity;BME280_pressure;Samples;Min_cycle;Max_cycle;Signal;HPM_P1;HPM_P2
2023/08/29 00:01:36;;;;;;;181.90;43.70;;;;;;;19.06;100.00;95558.30;108571;1270;22501;-83
2023/08/29 00:04:08;;;;;;;132.30;43.30;;;;;;;19.06;100.00;95553.01;108574;1276;24239;-83
2023/08/29 00:06:36;;;;;;;194.00;43.30;;;;;;;19.06;100.00;95554.31;108543;1276;25450;-83
2023/08/29 00:09:06;;;;;;;107.70;46.00;;;;;;;19.07;100.00;95550.86;108532;1276;22479;-83
2023/08/29 00:11:35;;;;;;;74.50;44.60;;;;;;;19.07;100.00;95548.87;108567;1271;22526;-83
2023/08/29 00:14:03;;;;;;;265.10;45.40;;;;;;;19.07;100.00;95545.41;108564;1276;24179;-83
2023/08/29 00:16:31;;;;;;;85.20;45.90;;;;;;;19.05;100.00;95547.70;108519;1276;22524;-83
2023/08/29 00:19:00;;;;;;;75.70;41.00;;;;;;;19.05;100.00;95547.23;106837;1276;2319368;-83
2023/08/29 00:21:28;;;;;;;77.40;44.00;;;;;;;19.06;100.00;95555.14;108541;1276;23810;-83
2023/08/29 00:23:56;;;;;;;151.60;42.00;;;;;;;19.07;100.00;95567.30;108527;1276;22551;-83
2023/08/29 00:26:25;;;;;;;136.90;43.00;;;;;;;19.05;100.00;95575.16;108581;1276;22558;-83
2023/08/29 00:28:53;;;;;;;152.10;40.60;;;;;;;19.01;100.00;95579.62;108512;1253;22530;-83
2023/08/29 00:31:22;;;;;;;89.10;38.60;;;;;;;18.98;100.00;95588.33;108551;1276;23787;-83
2023/08/29 00:33:51;;;;;;;126.00;38.50;;;;;;;18.99;100.00;95589.10;108552;1258;24295;-83
2023/08/29 00:36:19;;;;;;;;;;;;;;;18.99;100.00;95588.79;108662;1276;22526;-83
2023/08/29 00:38:52;;;;;;;71.50;33.40;;;;;;;18.98;100.00;95594.76;108491;1273;42469;-83
2023/08/29 00:41:21;;;;;;;42.20;29.60;;;;;;;18.96;100.00;95604.87;108551;1276;22950;-83
2023/08/29 00:43:52;;;;;;;34.50;26.10;;;;;;;18.92;100.00;95620.52;108532;1273;22574;-83
2023/08/29 00:46:23;;;;;;;42.70;30.50;;;;;;;18.86;100.00;95638.52;108549;1276;22531;-84
2023/08/29 00:48:55;;;;;;;43.10;31.00;;;;;;;18.81;100.00;95644.55;108564;1276;22805;-82
2023/08/29 00:51:23;;;;;;;38.80;29.20;;;;;;;18.80;100.00;95636.73;108567;1276;22553;-81
2023/08/29 00:53:52;;;;;;;41.90;29.20;;;;;;;18.82;100.00;95626.23;108534;1276;25122;-82
2023/08/29 00:56:20;;;;;;;;;;;;;;;18.81;100.00;95635.81;108558;1271;24949;-82
2023/08/29 00:58:48;;;;;;;33.60;24.30;;;;;;;18.82;100.00;95638.05;108520;1276;24245;-82
2023/08/29 01:01:17;;;;;;;36.70;27.10;;;;;;;18.80;100.00;95622.29;108579;1269;22593;-82
2023/08/29 01:03:45;;;;;;;25.20;20.60;;;;;;;18.81;100.00;95622.92;108577;1276;22577;-82
2023/08/29 01:06:14;;;;;;;18.00;15.70;;;;;;;18.81;100.00;95628.75;108546;1276;22549;-82
2023/08/29 01:08:43;;;;;;;13.90;12.40;;;;;;;18.75;100.00;95630.95;108525;1276;22539;-83
2023/08/29 01:11:21;;;;;;;14.60;12.90;;;;;;;18.72;100.00;95651.73;108620;1273;22530;-83
2023/08/29 01:13:59;;;;;;;15.00;13.10;;;;;;;18.70;100.00;95659.21;108571;1276;24563;-83
2023/08/29 01:16:35;;;;;;;14.40;12.30;;;;;;;18.69;100.00;95647.46;108561;1276;22700;-83
2023/08/29 01:19:11;;;;;;;14.90;13.30;;;;;;;18.68;100.00;95648.66;108552;1271;25260;-83
2023/08/29 01:21:49;;;;;;;16.30;14.40;;;;;;;18.68;100.00;95645.06;108579;1269;22551;-83
2023/08/29 01:24:29;;;;;;;15.30;13.40;;;;;;;18.66;100.00;95639.44;108577;1273;22544;-83
2023/08/29 01:26:58;;;;;;;15.20;12.90;;;;;;;18.67;100.00;95635.00;108480;1276;25395;-83
2023/08/29 01:29:27;;;;;;;16.20;14.50;;;;;;;18.69;100.00;95632.49;108546;1269;22733;-82
2023/08/29 01:31:57;;;;;;;16.20;14.50;;;;;;;18.69;100.00;95637.02;108545;1276;22552;-82
2023/08/29 01:34:26;;;;;;;17.40;14.40;;;;;;;18.70;100.00;95637.20;108563;1276;22597;-83
2023/08/29 01:36:54;;;;;;;18.00;15.30;;;;;;;18.69;100.00;95623.91;108533;1276;22557;-83
2023/08/29 01:39:22;;;;;;;16.50;14.80;;;;;;;18.69;100.00;95628.91;108557;1261;22534;-83
2023/08/29 01:41:51;;;;;;;14.40;12.20;;;;;;;18.69;100.00;95629.89;108592;1276;22542;-82
2023/08/29 01:44:19;;;;;;;13.60;12.20;;;;;;;18.66;100.00;95628.33;108554;1276;24740;-82
2023/08/29 01:46:47;;;;;;;14.10;12.70;;;;;;;18.67;100.00;95622.41;108569;1253;23190;-82
2023/08/29 01:49:16;;;;;;;14.60;12.80;;;;;;;18.66;100.00;95613.73;108512;1276;23141;-82
2023/08/29 01:51:45;;;;;;;12.80;11.50;;;;;;;18.64;100.00;95617.84;108557;1270;22546;-82
2023/08/29 01:54:14;;;;;;;11.10;9.80;;;;;;;18.58;100.00;95617.08;108574;1276;25269;-82
2023/08/29 01:56:43;;;;;;;12.50;10.70;;;;;;;18.54;100.00;95608.25;108484;1276;22549;-82
2023/08/29 01:59:11;;;;;;;11.10;10.00;;;;;;;18.55;100.00;95615.70;108435;1275;22587;-82
2023/08/29 02:01:41;;;;;;;11.90;10.50;;;;;;;18.54;100.00;95613.60;108397;1270;22553;-82
2023/08/29 02:04:09;;;;;;;9.30;7.40;;;;;;;18.47;100.00;95615.16;108501;1276;22535;-82
2023/08/29 02:06:37;;;;;;;10.20;8.60;;;;;;;18.38;100.00;95616.52;108426;1276;22537;-82
2023/08/29 02:09:07;;;;;;;12.70;10.20;;;;;;;18.34;100.00;95612.61;108428;1276;22531;-83
2023/08/29 02:11:34;;;;;;;;;;;;;;;18.36;100.00;95616.02;108492;1273;22632;-83
2023/08/29 02:14:02;;;;;;;11.30;9.30;;;;;;;18.37;100.00;95624.26;108505;1271;24219;-82
2023/08/29 02:16:31;;;;;;;9.90;8.90;;;;;;;18.38;100.00;95617.52;108441;1276;22660;-83
2023/08/29 02:18:59;;;;;;;8.80;6.90;;;;;;;18.37;100.00;95623.10;108441;1276;22536;-83
2023/08/29 02:21:28;;;;;;;8.00;6.60;;;;;;;18.31;100.00;95635.31;108518;1269;24287;-82
2023/08/29 02:23:58;;;;;;;7.10;6.20;;;;;;;18.22;100.00;95630.05;108499;1276;25376;-83
2023/08/29 02:26:26;;;;;;;7.10;6.00;;;;;;;18.13;100.00;95626.87;108466;1275;24161;-83
2023/08/29 02:28:55;;;;;;;7.60;6.20;;;;;;;18.07;100.00;95631.42;108496;1269;23366;-82
2023/08/29 02:31:23;;;;;;;9.00;6.10;;;;;;;18.01;100.00;95627.77;108498;1276;22549;-82
2023/08/29 02:33:53;;;;;;;7.30;6.60;;;;;;;17.93;100.00;95619.45;108485;1276;22546;-83
2023/08/29 02:36:23;;;;;;;7.70;6.70;;;;;;;17.85;100.00;95618.27;108466;1276;22548;-82
2023/08/29 02:38:53;;;;;;;;;;;;;;;17.79;100.00;95628.57;108434;1272;22508;-82
2023/08/29 02:41:21;;;;;;;7.90;5.80;;;;;;;17.72;100.00;95625.27;108507;1276;24520;-83
2023/08/29 02:43:49;;;;;;;6.30;5.70;;;;;;;17.65;100.00;95627.67;108461;1276;22530;-83
2023/08/29 02:46:17;;;;;;;6.60;5.90;;;;;;;17.56;100.00;95636.20;108492;1276;24205;-82
2023/08/29 02:48:47;;;;;;;8.30;6.40;;;;;;;17.49;100.00;95637.95;108451;1273;22538;-82
2023/08/29 02:51:16;;;;;;;8.90;6.80;;;;;;;17.45;100.00;95643.04;108483;1276;22551;-82
2023/08/29 02:53:45;;;;;;;7.40;5.90;;;;;;;17.44;100.00;95640.63;108478;1276;22530;-83
2023/08/29 02:56:13;;;;;;;7.50;6.10;;;;;;;17.49;100.00;95635.65;108484;1276;25374;-82
2023/08/29 02:58:42;;;;;;;9.70;6.70;;;;;;;17.55;100.00;95624.91;108463;1276;23647;-82
2023/08/29 03:01:12;;;;;;;8.60;5.90;;;;;;;17.60;100.00;95617.59;108541;1269;22591;-82
2023/08/29 03:03:41;;;;;;;9.40;6.10;;;;;;;17.59;100.00;95612.59;108527;1276;22643;-82
2023/08/29 03:06:09;;;;;;;6.60;5.70;;;;;;;17.56;100.00;95613.20;108517;1276;22524;-82
2023/08/29 03:08:38;;;;;;;10.00;6.30;;;;;;;17.53;100.00;95615.27;108478;1276;22541;-82
2023/08/29 03:11:06;;;;;;;7.70;5.60;;;;;;;17.53;100.00;95623.63;108489;1276;22533;-82
2023/08/29 03:13:34;;;;;;;6.50;5.70;;;;;;;17.47;100.00;95624.10;108464;1276;22610;-82
2023/08/29 03:16:12;;;;;;;6.60;5.80;;;;;;;17.32;100.00;95621.73;108518;1276;23315;-82
2023/08/29 03:18:40;;;;;;;8.00;5.90;;;;;;;17.22;100.00;95618.21;108491;1268;22525;-82
2023/08/29 03:21:09;;;;;;;9.10;6.10;;;;;;;17.20;100.00;95610.66;108528;1270;23742;-82
2023/08/29 03:23:37;;;;;;;7.80;6.40;;;;;;;17.23;100.00;95608.59;108499;1276;22581;-82
2023/08/29 03:26:09;;;;;;;8.00;5.70;;;;;;;17.27;100.00;95618.31;108501;1276;24344;-82
2023/08/29 03:28:38;;;;;;;6.90;5.20;;;;;;;17.29;100.00;95617.45;108480;1269;25340;-82
2023/08/29 03:31:10;;;;;;;6.70;5.10;;;;;;;17.29;100.00;95621.51;108477;1276;22557;-82
2023/08/29 03:33:39;;;;;;;5.90;4.80;;;;;;;17.31;100.00;95616.64;108471;1271;22530;-82
2023/08/29 03:36:08;;;;;;;9.10;5.70;;;;;;;17.33;100.00;95617.26;108533;1276;22530;-83
2023/08/29 03:38:38;;;;;;;5.40;4.90;;;;;;;17.33;100.00;95617.48;108493;1276;22550;-82
2023/08/29 03:41:07;;;;;;;6.80;5.50;;;;;;;17.25;100.00;95609.48;108502;1276;22569;-82
2023/08/29 03:43:36;;;;;;;7.30;6.20;;;;;;;17.15;100.00;95605.16;108581;1276;22787;-82
2023/08/29 03:46:04;;;;;;;;;;;;;;;17.14;100.00;95609.81;108483;1276;22542;-82
2023/08/29 03:48:33;;;;;;;9.00;6.10;;;;;;;17.09;100.00;95613.20;108527;1274;24367;-82
2023/08/29 03:51:05;;;;;;;6.10;5.50;;;;;;;16.97;100.00;95611.81;108494;1276;22524;-83
2023/08/29 03:53:34;;;;;;;6.50;5.00;;;;;;;16.90;100.00;95604.39;108618;1273;22727;-83
2023/08/29 03:56:04;;;;;;;8.50;5.80;;;;;;;16.91;100.00;95608.62;108565;1276;22530;-82
2023/08/29 03:58:35;;;;;;;9.10;7.20;;;;;;;16.92;100.00;95620.28;108577;1276;22561;-83
2023/08/29 04:01:04;;;;;;;9.40;7.60;;;;;;;16.85;100.00;95620.99;108567;1276;25265;-82
2023/08/29 04:03:33;;;;;;;10.40;8.60;;;;;;;16.81;100.00;95623.43;108547;1276;22533;-83
2023/08/29 04:06:01;;;;;;;10.50;9.40;;;;;;;16.74;100.00;95637.45;108577;1276;22542;-82
2023/08/29 04:08:30;;;;;;;9.40;8.40;;;;;;;16.67;100.00;95640.16;108521;1276;25422;-82
2023/08/29 04:10:58;;;;;;;9.50;8.60;;;;;;;16.67;100.00;95632.42;108615;1271;25453;-82
2023/08/29 04:13:28;;;;;;;9.50;8.30;;;;;;;16.71;100.00;95628.64;108598;1273;22523;-83
2023/08/29 04:16:02;;;;;;;9.80;8.00;;;;;;;16.78;100.00;95633.44;108559;1269;22527;-83
2023/08/29 04:18:32;;;;;;;8.90;7.20;;;;;;;16.89;100.00;95629.98;108611;1276;22536;-83
2023/08/29 04:21:01;;;;;;;7.50;6.80;;;;;;;16.95;100.00;95627.83;108612;1276;22527;-82
2023/08/29 04:23:30;;;;;;;7.90;6.70;;;;;;;17.03;100.00;95617.10;108656;1270;25920;-83
2023/08/29 04:26:03;;;;;;;7.90;6.70;;;;;;;17.16;100.00;95620.66;108557;1272;22582;-82
2023/08/29 04:28:31;;;;;;;7.30;6.30;;;;;;;17.26;100.00;95629.16;108590;1273;26891;-83
2023/08/29 04:31:08;;;;;;;7.20;6.10;;;;;;;17.37;100.00;95632.95;108635;1276;22549;-82
2023/08/29 04:33:37;;;;;;;7.50;6.80;;;;;;;17.53;100.00;95636.66;108659;1265;24797;-82
2023/08/29 04:36:06;;;;;;;7.20;6.40;;;;;;;17.72;100.00;95632.69;108536;1276;22590;-82
2023/08/29 04:38:35;;;;;;;7.60;6.80;;;;;;;17.95;100.00;95632.45;108476;1271;22664;-83
2023/08/29 04:41:04;;;;;;;7.90;6.50;;;;;;;18.26;100.00;95624.54;108483;1276;24182;-83
2023/08/29 04:43:32;;;;;;;7.00;5.80;;;;;;;18.60;100.00;95611.15;108551;1276;22643;-83
2023/08/29 04:46:01;;;;;;;6.40;5.60;;;;;;;18.79;100.00;95612.52;108590;1276;25057;-83
2023/08/29 04:48:29;;;;;;;7.10;6.20;;;;;;;18.87;100.00;95611.69;108554;1276;23426;-82
2023/08/29 04:50:58;;;;;;;6.00;5.40;;;;;;;19.03;100.00;95608.77;108558;1276;25282;-82
2023/08/29 04:53:27;;;;;;;7.30;6.20;;;;;;;19.33;100.00;95606.65;108499;1276;22525;-83
2023/08/29 04:56:00;;;;;;;8.60;7.70;;;;;;;19.48;100.00;95608.89;108543;1271;22535;-83
2023/08/29 04:58:29;;;;;;;7.10;6.40;;;;;;;19.68;100.00;95615.92;108525;1276;22533;-83
2023/08/29 05:00:57;;;;;;;;;;;;;;;19.95;100.00;95614.81;108550;1275;22512;-83
2023/08/29 05:03:26;;;;;;;8.40;6.60;;;;;;;20.17;100.00;95610.88;108544;1276;22549;-83
2023/08/29 05:05:54;;;;;;;5.90;5.20;;;;;;;20.26;100.00;95609.77;108512;1271;23040;-83
2023/08/29 05:08:23;;;;;;;6.60;5.90;;;;;;;20.37;100.00;95606.15;108513;1276;25427;-82
2023/08/29 05:10:52;;;;;;;7.30;5.60;;;;;;;20.54;100.00;95609.55;108573;1276;22578;-82
2023/08/29 05:13:20;;;;;;;6.40;5.30;;;;;;;20.65;100.00;95614.21;108581;1276;22534;-83
2023/08/29 05:15:48;;;;;;;5.50;5.00;;;;;;;20.80;100.00;95614.30;108642;1260;22561;-82
2023/08/29 05:18:16;;;;;;;5.80;5.20;;;;;;;20.92;100.00;95614.59;108526;1275;22538;-82
2023/08/29 05:20:45;;;;;;;4.40;4.00;;;;;;;21.04;100.00;95607.02;108522;1274;24396;-83
2023/08/29 05:23:13;;;;;;;5.10;4.60;;;;;;;21.16;100.00;95600.67;108506;1273;25284;-83
2023/08/29 05:25:42;;;;;;;5.20;4.10;;;;;;;21.45;100.00;95596.19;108535;1273;22702;-83
2023/08/29 05:28:11;;;;;;;4.30;3.90;;;;;;;21.83;100.00;95584.91;108527;1272;22531;-83
2023/08/29 05:30:40;;;;;;;4.80;3.90;;;;;;;22.07;100.00;95578.91;108527;1276;22573;-83
2023/08/29 05:33:08;;;;;;;5.40;4.70;;;;;;;22.20;100.00;95575.14;108549;1269;26543;-83
2023/08/29 05:35:37;;;;;;;4.80;4.00;;;;;;;22.37;100.00;95580.92;108518;1276;22606;-84
2023/08/29 05:38:05;;;;;;;5.30;3.80;;;;;;;22.40;100.00;95583.41;108492;1276;27873;-83
2023/08/29 05:40:34;;;;;;;5.60;4.10;;;;;;;22.29;100.00;95591.92;108512;1276;22480;-84
2023/08/29 05:43:02;;;;;;;5.00;4.30;;;;;;;22.45;100.00;95585.13;108609;1270;22550;-84
2023/08/29 05:45:31;;;;;;;3.70;3.40;;;;;;;22.49;100.00;95578.96;108546;1269;25214;-84
2023/08/29 05:47:59;;;;;;;4.50;3.50;;;;;;;22.51;100.00;95580.13;108607;1269;25786;-84
2023/08/29 05:50:28;;;;;;;3.30;2.70;;;;;;;22.67;100.00;95579.35;108561;1273;22526;-84
2023/08/29 05:52:56;;;;;;;4.90;3.50;;;;;;;22.70;100.00;95577.59;108555;1274;24282;-84
2023/08/29 05:55:24;;;;;;;4.20;3.40;;;;;;;22.71;99.82;95576.66;108505;1274;22589;-84
2023/08/29 05:57:53;;;;;;;4.60;3.20;;;;;;;22.73;99.23;95578.59;108581;1269;22530;-84
2023/08/29 06:00:22;;;;;;;3.00;2.70;;;;;;;22.71;98.41;95588.09;108595;1269;25054;-84
2023/08/29 06:02:52;;;;;;;3.60;3.10;;;;;;;22.77;97.66;95603.69;108622;1276;22545;-84
2023/08/29 06:05:21;;;;;;;5.80;3.50;;;;;;;22.80;96.60;95625.55;108654;1274;22751;-84
2023/08/29 06:07:49;;;;;;;3.80;3.30;;;;;;;22.71;94.45;95645.13;108569;1273;22577;-85
2023/08/29 06:10:17;;;;;;;3.70;3.20;;;;;;;22.38;93.31;95648.14;108629;1269;22531;-84
2023/08/29 06:12:46;;;;;;;3.80;3.40;;;;;;;22.26;94.14;95652.93;108607;1276;22524;-85
2023/08/29 06:15:15;;;;;;;3.60;3.10;;;;;;;22.20;93.82;95637.45;108615;1271;22543;-86
2023/08/29 06:17:44;;;;;;;3.30;2.90;;;;;;;22.08;93.88;95624.65;108595;1272;22533;-85
2023/08/29 06:20:13;;;;;;;4.50;3.70;;;;;;;22.17;94.84;95621.70;108556;1269;22531;-85
2023/08/29 06:22:42;;;;;;;5.10;3.80;;;;;;;22.28;94.71;95619.77;108588;1263;22529;-85
2023/08/29 06:25:10;;;;;;;4.20;3.80;;;;;;;22.53;95.95;95618.27;108634;1273;22740;-85
2023/08/29 06:27:39;;;;;;;5.00;4.40;;;;;;;22.69;95.31;95612.17;108560;1271;24248;-85
2023/08/29 06:30:12;;;;;;;4.60;4.00;;;;;;;22.81;95.26;95608.43;108592;1276;22568;-85
2023/08/29 06:32:41;;;;;;;4.00;3.50;;;;;;;22.85;94.17;95604.37;108612;1269;22530;-85
2023/08/29 06:35:11;;;;;;;5.40;4.50;;;;;;;22.75;93.24;95602.61;108583;1274;25105;-85
2023/08/29 06:37:40;;;;;;;4.30;3.90;;;;;;;22.59;93.17;95587.96;108623;1275;25298;-85
2023/08/29 06:40:11;;;;;;;5.10;4.20;;;;;;;22.48;92.77;95578.20;108600;1276;22554;-84
2023/08/29 06:42:40;;;;;;;5.70;4.30;;;;;;;22.33;93.35;95563.23;108573;1276;22543;-85
2023/08/29 06:45:10;;;;;;;7.90;4.30;;;;;;;22.42;93.69;95553.16;108547;1276;22530;-82
2023/08/29 06:47:39;;;;;;;6.30;4.20;;;;;;;22.70;94.68;95558.67;108529;1276;25501;-77
2023/08/29 06:50:08;;;;;;;6.50;4.40;;;;;;;23.04;94.79;95568.59;108522;1276;22553;-77
2023/08/29 06:52:37;;;;;;;5.40;4.30;;;;;;;23.30;94.28;95572.09;108586;1276;22534;-78
2023/08/29 06:55:07;;;;;;;4.80;3.50;;;;;;;23.58;93.93;95578.90;108555;1276;25382;-79
2023/08/29 06:57:35;;;;;;;5.60;3.50;;;;;;;23.83;92.96;95580.92;108525;1276;23031;-79
2023/08/29 07:00:04;;;;;;;5.30;4.10;;;;;;;23.98;91.47;95571.77;108508;1272;22525;-78
2023/08/29 07:02:32;;;;;;;;;;;;;;;23.98;91.07;95568.21;108530;1275;22498;-77
2023/08/29 07:05:00;;;;;;;4.00;3.30;;;;;;;24.13;90.32;95555.96;108557;1276;22548;-77
2023/08/29 07:07:29;;;;;;;4.10;3.70;;;;;;;24.13;89.33;95562.69;108563;1272;22487;-77
2023/08/29 07:09:58;;;;;;;5.10;3.30;;;;;;;24.22;89.45;95565.84;108530;1274;22577;-78
2023/08/29 07:12:26;;;;;;;5.50;3.50;;;;;;;24.43;88.59;95569.49;108573;1272;25340;-78
2023/08/29 07:14:54;;;;;;;3.20;2.90;;;;;;;24.63;88.17;95570.58;108629;1272;22688;-77
2023/08/29 07:17:23;;;;;;;3.30;3.00;;;;;;;24.81;88.09;95570.19;108604;1276;22652;-77
2023/08/29 07:19:51;;;;;;;3.90;2.90;;;;;;;24.92;87.29;95575.70;108528;1276;22531;-77
2023/08/29 07:22:20;;;;;;;4.50;3.20;;;;;;;25.14;87.20;95580.48;108507;1276;24397;-77
2023/08/29 07:24:48;;;;;;;3.50;2.90;;;;;;;25.30;86.18;95586.58;108565;1276;24573;-77
2023/08/29 07:27:17;;;;;;;3.90;3.20;;;;;;;25.41;85.40;95582.46;108396;1273;179782;-78
2023/08/29 07:29:46;;;;;;;3.70;3.00;;;;;;;25.60;85.52;95586.04;108492;1270;25294;-77
2023/08/29 07:32:14;;;;;;;3.80;3.00;;;;;;;25.78;84.66;95592.66;108584;1276;23121;-77
2023/08/29 07:34:43;;;;;;;3.10;2.70;;;;;;;25.94;83.36;95605.31;108555;1276;21802;-77
2023/08/29 07:37:11;;;;;;;4.60;2.60;;;;;;;26.03;81.86;95615.39;108467;1268;24205;-77
2023/08/29 07:39:40;;;;;;;4.90;2.60;;;;;;;26.04;81.34;95617.95;108532;1276;22526;-79
2023/08/29 07:42:09;;;;;;;3.40;2.70;;;;;;;26.11;81.32;95615.80;108512;1276;24224;-79
2023/08/29 07:44:39;;;;;;;3.80;2.50;;;;;;;26.23;81.07;95617.08;108525;1276;22016;-79
2023/08/29 07:47:09;;;;;;;2.80;2.50;;;;;;;26.28;80.42;95608.47;108557;1275;22556;-79
2023/08/29 07:49:37;;;;;;;3.00;2.60;;;;;;;26.33;79.48;95612.02;108520;1276;22570;-78
2023/08/29 07:52:06;;;;;;;4.30;2.20;;;;;;;26.33;77.96;95614.02;108550;1276;23620;-79
2023/08/29 07:54:34;;;;;;;2.90;2.70;;;;;;;26.32;77.78;95613.88;108556;1265;22520;-78
2023/08/29 07:57:03;;;;;;;4.50;3.20;;;;;;;26.18;76.94;95604.23;108508;1269;22523;-79
2023/08/29 07:59:32;;;;;;;3.20;2.90;;;;;;;26.14;77.01;95604.66;108536;1274;22577;-78
2023/08/29 08:02:00;;;;;;;3.50;3.20;;;;;;;26.10;77.24;95600.13;108614;1269;22494;-79
2023/08/29 08:04:29;;;;;;;3.60;3.30;;;;;;;26.21;77.84;95596.77;108641;1274;25387;-80
2023/08/29 08:06:58;;;;;;;4.30;3.00;;;;;;;26.35;77.99;95591.81;108543;1273;24229;-78
2023/08/29 08:09:26;;;;;;;4.80;3.30;;;;;;;26.43;77.64;95598.87;108517;1276;22525;-78
2023/08/29 08:11:55;;;;;;;5.30;2.90;;;;;;;26.53;77.77;95609.64;108559;1269;22533;-78
2023/08/29 08:14:24;;;;;;;3.90;3.30;;;;;;;26.57;77.88;95613.77;108536;1274;22541;-78
2023/08/29 08:16:53;;;;;;;5.80;2.80;;;;;;;26.53;76.23;95606.77;108635;1276;22541;-77
2023/08/29 08:19:21;;;;;;;4.00;2.70;;;;;;;26.41;75.08;95610.47;108571;1276;22557;-77
2023/08/29 08:21:50;;;;;;;3.20;2.30;;;;;;;26.21;74.33;95616.63;108627;1274;22617;-78
2023/08/29 08:24:19;;;;;;;3.20;2.00;;;;;;;26.21;75.13;95617.17;108601;1273;22572;-77
2023/08/29 08:26:47;;;;;;;3.40;2.40;;;;;;;26.46;75.38;95609.86;108644;1275;22534;-78
2023/08/29 08:29:15;;;;;;;4.60;2.70;;;;;;;26.64;75.39;95606.18;108604;1271;44877;-78
2023/08/29 08:31:44;;;;;;;5.50;2.80;;;;;;;26.66;75.46;95609.27;108608;1272;22539;-78
2023/08/29 08:34:13;;;;;;;3.00;2.60;;;;;;;26.50;74.72;95611.77;108602;1269;22528;-78
2023/08/29 08:36:41;;;;;;;4.10;2.60;;;;;;;26.38;75.72;95614.78;108560;1276;22527;-78
2023/08/29 08:39:09;;;;;;;5.90;2.70;;;;;;;26.42;75.08;95617.67;108520;1269;23028;-78
2023/08/29 08:41:40;;;;;;;3.70;2.50;;;;;;;26.44;74.76;95615.08;108559;1271;24187;-79
2023/08/29 08:44:11;;;;;;;3.60;2.80;;;;;;;26.44;74.41;95610.36;108484;1275;22525;-79
2023/08/29 08:46:40;;;;;;;3.40;3.10;;;;;;;26.51;75.77;95610.36;108516;1276;22515;-79
2023/08/29 08:49:09;;;;;;;4.00;3.50;;;;;;;26.54;75.96;95620.97;108514;1275;22576;-79
2023/08/29 08:51:41;;;;;;;6.10;3.40;;;;;;;26.27;74.46;95615.48;108548;1276;25363;-79
2023/08/29 08:54:10;;;;;;;4.30;3.90;;;;;;;25.94;74.77;95617.27;108513;1276;24236;-79
2023/08/29 08:56:39;;;;;;;4.70;3.20;;;;;;;25.61;74.90;95611.55;108580;1276;22641;-78
2023/08/29 08:59:09;;;;;;;4.00;3.20;;;;;;;25.39;74.70;95605.05;108567;1272;22864;-79
2023/08/29 09:01:38;;;;;;;3.70;3.20;;;;;;;25.20;75.47;95604.86;108656;1273;22570;-80
2023/08/29 09:04:08;;;;;;;4.30;3.50;;;;;;;25.22;77.05;95604.30;108623;1269;22577;-79
2023/08/29 09:06:38;;;;;;;5.10;3.40;;;;;;;25.30;77.22;95601.15;108582;1276;24249;-79
2023/08/29 09:09:22;;;;;;;5.60;3.60;;;;;;;25.40;77.30;95604.02;108565;1273;22534;-79
2023/08/29 09:11:56;;;;;;;4.40;3.50;;;;;;;25.44;77.43;95595.70;108574;1276;25432;-79
2023/08/29 09:14:26;;;;;;;3.60;3.30;;;;;;;25.56;78.02;95593.52;108590;1274;26605;-79
2023/08/29 09:16:55;;;;;;;4.50;3.40;;;;;;;25.57;78.12;95592.42;108617;1276;22584;-79
2023/08/29 09:19:24;;;;;;;4.10;3.70;;;;;;;25.58;78.57;95598.77;108605;1276;22542;-79
2023/08/29 09:21:53;;;;;;;3.30;3.00;;;;;;;25.70;77.70;95608.78;108630;1276;22653;-80
2023/08/29 09:24:34;;;;;;;3.70;3.00;;;;;;;25.73;77.43;95612.95;108591;1276;22582;-79
2023/08/29 09:27:05;;;;;;;3.50;3.20;;;;;;;25.49;75.44;95616.05;108638;1273;25263;-79
2023/08/29 09:29:34;;;;;;;4.00;3.30;;;;;;;25.18;75.45;95622.21;108613;1276;24220;-79
2023/08/29 09:32:13;;;;;;;3.30;3.00;;;;;;;25.01;76.19;95624.71;108660;1276;23605;-79
2023/08/29 09:34:42;;;;;;;6.00;3.30;;;;;;;25.01;77.54;95623.09;108629;1276;22533;-79
2023/08/29 09:37:12;;;;;;;4.00;3.10;;;;;;;24.99;76.64;95624.72;108563;1276;22521;-79
2023/08/29 09:39:41;;;;;;;4.00;3.00;;;;;;;24.86;76.61;95622.05;108520;1275;22562;-79
2023/08/29 09:42:11;;;;;;;5.40;2.70;;;;;;;24.89;77.32;95621.42;108548;1276;22558;-79
2023/08/29 09:44:41;;;;;;;4.40;2.90;;;;;;;24.87;76.49;95623.13;108531;1274;24301;-80
2023/08/29 09:47:11;;;;;;;3.10;2.50;;;;;;;24.76;76.13;95632.33;108610;1275;22558;-79
2023/08/29 09:49:44;;;;;;;4.50;2.90;;;;;;;24.73;75.69;95640.70;108554;1273;22569;-79
2023/08/29 09:52:14;;;;;;;3.20;2.70;;;;;;;24.70;76.31;95651.17;108603;1276;22533;-79
2023/08/29 09:54:47;;;;;;;3.00;2.50;;;;;;;24.75;77.55;95653.77;108579;1276;26471;-79
2023/08/29 09:57:18;;;;;;;3.30;2.70;;;;;;;24.80;77.28;95650.36;108595;1276;22534;-79
2023/08/29 09:59:47;;;;;;;3.00;2.60;;;;;;;24.77;76.24;95650.98;108547;1253;22532;-79
2023/08/29 10:02:17;;;;;;;;;;;;;;;24.73;75.51;95658.27;108516;1276;22516;-78
2023/08/29 10:04:49;;;;;;;3.70;2.50;;;;;;;24.78;75.93;95658.73;108500;1269;25303;-79
2023/08/29 10:07:22;;;;;;;3.40;2.30;;;;;;;24.86;75.92;95654.20;108524;1270;22710;-79
2023/08/29 10:09:51;;;;;;;2.60;2.40;;;;;;;24.87;75.66;95654.19;108488;1276;22757;-79
2023/08/29 10:12:20;;;;;;;2.60;2.40;;;;;;;24.86;76.12;95651.18;108503;1269;22539;-79
2023/08/29 10:14:51;;;;;;;2.80;2.50;;;;;;;24.89;76.77;95651.93;108543;1274;22524;-79
2023/08/29 10:17:22;;;;;;;2.70;2.40;;;;;;;24.88;75.39;95650.70;108559;1270;22526;-79
2023/08/29 10:19:51;;;;;;;3.60;2.80;;;;;;;24.85;75.50;95652.66;108465;1276;22533;-79
2023/08/29 10:22:20;;;;;;;4.60;3.00;;;;;;;24.86;75.79;95650.33;108585;1276;22539;-79
2023/08/29 10:24:52;;;;;;;3.90;2.80;;;;;;;24.87;75.72;95646.38;108499;1276;23644;-79
2023/08/29 10:27:20;;;;;;;2.80;2.50;;;;;;;24.82;75.44;95653.91;108483;1275;22551;-79
2023/08/29 10:29:48;;;;;;;4.10;2.80;;;;;;;24.81;75.92;95657.80;108593;1276;22557;-79
2023/08/29 10:32:17;;;;;;;3.30;3.00;;;;;;;24.70;74.98;95669.14;108573;1269;22531;-80
2023/08/29 10:34:45;;;;;;;2.90;2.60;;;;;;;24.63;75.49;95670.31;108642;1276;22904;-80
2023/08/29 10:37:18;;;;;;;5.30;3.10;;;;;;;24.63;75.76;95667.52;108611;1276;22581;-80
2023/08/29 10:39:47;;;;;;;4.00;2.90;;;;;;;24.62;76.41;95664.35;108626;1276;22538;-80
2023/08/29 10:42:16;;;;;;;2.80;2.60;;;;;;;24.61;76.34;95670.31;108565;1276;22543;-80
2023/08/29 10:44:45;;;;;;;3.00;2.70;;;;;;;24.57;76.89;95665.30;108572;1273;24748;-80
2023/08/29 10:47:21;;;;;;;3.10;2.80;;;;;;;24.60;77.69;95659.09;108570;1276;22594;-79
2023/08/29 10:49:56;;;;;;;3.50;3.00;;;;;;;24.59;77.77;95645.63;108498;1273;22560;-82
2023/08/29 10:52:33;;;;;;;3.10;2.70;;;;;;;24.53;77.52;95647.20;108485;1276;22572;-80
2023/08/29 10:55:18;;;;;;;3.80;2.60;;;;;;;24.47;77.24;95649.20;108511;1269;22549;-80
2023/08/29 10:57:46;;;;;;;3.20;2.90;;;;;;;24.41;77.59;95644.83;108488;1276;22566;-79
2023/08/29 11:00:18;;;;;;;3.50;3.00;;;;;;;24.42;78.30;95643.83;108501;1276;25271;-79
2023/08/29 11:02:48;;;;;;;3.00;2.80;;;;;;;24.42;78.60;95648.55;108547;1275;25337;-79
2023/08/29 11:05:19;;;;;;;3.90;2.90;;;;;;;24.39;78.75;95655.20;108446;1276;22536;-79
2023/08/29 11:07:48;;;;;;;4.90;2.80;;;;;;;24.35;78.66;95653.13;108463;1276;22579;-79
2023/08/29 11:10:20;;;;;;;3.40;3.00;;;;;;;24.26;78.13;95662.09;108549;1276;22534;-79
2023/08/29 11:13:09;;;;;;;5.90;3.50;;;;;;;24.21;78.64;95668.98;108652;1275;27430;-79
2023/08/29 11:16:08;;;;;;;5.70;2.90;;;;;;;24.19;79.54;95682.13;108601;1273;23317;-79
2023/08/29 11:18:37;;;;;;;6.20;3.50;;;;;;;24.09;78.73;95701.73;108592;1276;22567;-79
2023/08/29 11:21:07;;;;;;;6.00;3.70;;;;;;;23.86;79.90;95710.61;108578;1276;24264;-79
2023/08/29 11:23:40;;;;;;;8.70;3.80;;;;;;;23.56;81.11;95688.98;108633;1276;22550;-79
2023/08/29 11:26:10;;;;;;;7.30;3.90;;;;;;;23.42;82.49;95670.02;108538;1270;22531;-79
2023/08/29 11:28:45;;;;;;;;;;;;;;;23.24;82.72;95668.44;108543;1273;25293;-79
2023/08/29 11:31:13;;;;;;;9.80;4.70;;;;;;;23.02;83.70;95659.71;108559;1276;25414;-79